sensor_id;sensor_type;location;lat;lon;timestamp;temperature;humidity
33761;DHT22;20084;47.912;19.044;2023-06-26T00:01:50;18.00;99.90
33761;DHT22;20084;47.912;19.044;2023-06-26T00:04:16;18.00;99.90
33761;DHT22;20084;47.912;19.044;2023-06-26T00:06:42;17.90;99.90
33761;DHT22;20084;47.912;19.044;2023-06-26T00:09:08;18.00;99.90
33761;DHT22;20084;47.912;19.044;2023-06-26T00:11:34;18.00;99.90
33761;DHT22;20084;47.912;19.044;2023-06-26T00:14:00;18.00;99.90
33761;DHT22;20084;47.912;19.044;2023-06-26T00:16:26;17.90;99.90
33761;DHT22;20084;47.912;19.044;2023-06-26T00:18:53;17.90;99.90
33761;DHT22;20084;47.912;19.044;2023-06-26T00:21:19;17.90;99.90
33761;DHT22;20084;47.912;19.044;2023-06-26T00:23:45;17.90;99.90
33761;DHT22;20084;47.912;19.044;2023-06-26T00:26:11;17.90;99.90
33761;DHT22;20084;47.912;19.044;2023-06-26T00:28:37;17.90;99.90
33761;DHT22;20084;47.912;19.044;2023-06-26T00:31:03;17.80;99.90
33761;DHT22;20084;47.912;19.044;2023-06-26T00:33:29;17.90;99.90
33761;DHT22;20084;47.912;19.044;2023-06-26T00:35:54;17.80;99.90
33761;DHT22;20084;47.912;19.044;2023-06-26T00:38:20;17.80;99.90
33761;DHT22;20084;47.912;19.044;2023-06-26T00:40:46;17.80;99.90
33761;DHT22;20084;47.912;19.044;2023-06-26T00:43:12;17.80;99.90
33761;DHT22;20084;47.912;19.044;2023-06-26T00:45:38;17.70;99.90
33761;DHT22;20084;47.912;19.044;2023-06-26T00:48:04;17.60;99.90
33761;DHT22;20084;47.912;19.044;2023-06-26T00:50:29;17.50;99.90
33761;DHT22;20084;47.912;19.044;2023-06-26T00:52:55;17.50;99.90
33761;DHT22;20084;47.912;19.044;2023-06-26T00:55:26;17.40;99.90
33761;DHT22;20084;47.912;19.044;2023-06-26T00:57:52;17.40;99.90
33761;DHT22;20084;47.912;19.044;2023-06-26T01:00:18;17.40;99.90
33761;DHT22;20084;47.912;19.044;2023-06-26T01:02:44;17.40;99.90
33761;DHT22;20084;47.912;19.044;2023-06-26T01:05:10;17.40;99.90
33761;DHT22;20084;47.912;19.044;2023-06-26T01:07:38;17.40;99.90
33761;DHT22;20084;47.912;19.044;2023-06-26T01:10:05;17.40;99.90
33761;DHT22;20084;47.912;19.044;2023-06-26T01:12:33;17.30;99.90
33761;DHT22;20084;47.912;19.044;2023-06-26T01:14:59;17.20;99.90
33761;DHT22;20084;47.912;19.044;2023-06-26T01:17:27;17.20;99.90
33761;DHT22;20084;47.912;19.044;2023-06-26T01:19:59;17.20;99.90
33761;DHT22;20084;47.912;19.044;2023-06-26T01:22:28;17.20;99.90
33761;DHT22;20084;47.912;19.044;2023-06-26T01:27:50;17.10;99.90
33761;DHT22;20084;47.912;19.044;2023-06-26T01:30:18;17.10;99.90
33761;DHT22;20084;47.912;19.044;2023-06-26T01:32:45;17.00;99.90
33761;DHT22;20084;47.912;19.044;2023-06-26T01:35:11;17.00;99.90
33761;DHT22;20084;47.912;19.044;2023-06-26T01:37:37;17.00;99.90
33761;DHT22;20084;47.912;19.044;2023-06-26T01:40:03;17.00;99.90
33761;DHT22;20084;47.912;19.044;2023-06-26T01:42:33;17.00;99.90
33761;DHT22;20084;47.912;19.044;2023-06-26T01:45:22;16.90;99.90
33761;DHT22;20084;47.912;19.044;2023-06-26T01:47:51;16.90;99.90
33761;DHT22;20084;47.912;19.044;2023-06-26T01:50:22;16.90;99.90
33761;DHT22;20084;47.912;19.044;2023-06-26T01:53:04;16.90;99.90
33761;DHT22;20084;47.912;19.044;2023-06-26T01:55:47;16.80;99.90
33761;DHT22;20084;47.912;19.044;2023-06-26T01:58:15;16.80;99.90
33761;DHT22;20084;47.912;19.044;2023-06-26T02:00:42;16.80;99.90
33761;DHT22;20084;47.912;19.044;2023-06-26T02:03:08;16.70;99.90
33761;DHT22;20084;47.912;19.044;2023-06-26T02:05:34;16.80;99.90
33761;DHT22;20084;47.912;19.044;2023-06-26T02:08:00;16.80;99.90
33761;DHT22;20084;47.912;19.044;2023-06-26T02:10:28;16.80;99.90
33761;DHT22;20084;47.912;19.044;2023-06-26T02:12:55;16.80;99.90
33761;DHT22;20084;47.912;19.044;2023-06-26T02:15:20;16.80;99.90
33761;DHT22;20084;47.912;19.044;2023-06-26T02:17:47;16.80;99.90
33761;DHT22;20084;47.912;19.044;2023-06-26T02:20:16;16.70;99.90
33761;DHT22;20084;47.912;19.044;2023-06-26T02:22:42;16.70;99.90
33761;DHT22;20084;47.912;19.044;2023-06-26T02:25:09;16.70;99.90
33761;DHT22;20084;47.912;19.044;2023-06-26T02:27:35;16.70;99.90
33761;DHT22;20084;47.912;19.044;2023-06-26T02:30:01;16.60;99.90
33761;DHT22;20084;47.912;19.044;2023-06-26T02:32:27;16.60;99.90
33761;DHT22;20084;47.912;19.044;2023-06-26T02:34:53;16.50;99.90
33761;DHT22;20084;47.912;19.044;2023-06-26T02:37:19;16.60;99.90
33761;DHT22;20084;47.912;19.044;2023-06-26T02:39:45;16.50;99.90
33761;DHT22;20084;47.912;19.044;2023-06-26T02:42:11;16.60;99.90
33761;DHT22;20084;47.912;19.044;2023-06-26T02:44:36;16.60;99.90
33761;DHT22;20084;47.912;19.044;2023-06-26T02:47:02;16.60;99.90
33761;DHT22;20084;47.912;19.044;2023-06-26T02:49:28;16.60;99.90
33761;DHT22;20084;47.912;19.044;2023-06-26T02:51:54;16.50;99.90
33761;DHT22;20084;47.912;19.044;2023-06-26T02:54:19;16.40;99.90
33761;DHT22;20084;47.912;19.044;2023-06-26T02:56:45;16.40;99.90
33761;DHT22;20084;47.912;19.044;2023-06-26T02:59:10;16.50;99.90
33761;DHT22;20084;47.912;19.044;2023-06-26T03:01:36;16.50;99.90
33761;DHT22;20084;47.912;19.044;2023-06-26T03:04:02;16.50;99.90
33761;DHT22;20084;47.912;19.044;2023-06-26T03:06:27;16.50;99.90
33761;DHT22;20084;47.912;19.044;2023-06-26T03:08:53;16.40;99.90
33761;DHT22;20084;47.912;19.044;2023-06-26T03:11:19;16.40;99.90
33761;DHT22;20084;47.912;19.044;2023-06-26T03:13:45;16.30;99.90
33761;DHT22;20084;47.912;19.044;2023-06-26T03:16:10;16.30;99.90
33761;DHT22;20084;47.912;19.044;2023-06-26T03:18:36;16.30;99.90
33761;DHT22;20084;47.912;19.044;2023-06-26T03:21:02;16.30;99.90
33761;DHT22;20084;47.912;19.044;2023-06-26T03:23:28;16.40;99.90
33761;DHT22;20084;47.912;19.044;2023-06-26T03:25:54;16.40;99.90
33761;DHT22;20084;47.912;19.044;2023-06-26T03:28:19;16.50;99.90
33761;DHT22;20084;47.912;19.044;2023-06-26T03:30:45;16.50;99.90
33761;DHT22;20084;47.912;19.044;2023-06-26T03:33:11;16.60;99.90
33761;DHT22;20084;47.912;19.044;2023-06-26T03:35:37;16.60;99.90
33761;DHT22;20084;47.912;19.044;2023-06-26T03:38:04;16.60;99.90
33761;DHT22;20084;47.912;19.044;2023-06-26T03:40:30;16.70;99.90
33761;DHT22;20084;47.912;19.044;2023-06-26T03:42:55;16.70;99.90
33761;DHT22;20084;47.912;19.044;2023-06-26T03:45:21;16.80;99.90
33761;DHT22;20084;47.912;19.044;2023-06-26T03:47:46;16.80;99.90
33761;DHT22;20084;47.912;19.044;2023-06-26T03:50:15;16.90;99.90
33761;DHT22;20084;47.912;19.044;2023-06-26T03:52:40;17.00;99.90
33761;DHT22;20084;47.912;19.044;2023-06-26T03:55:06;17.00;99.90
33761;DHT22;20084;47.912;19.044;2023-06-26T03:57:32;16.90;99.90
33761;DHT22;20084;47.912;19.044;2023-06-26T03:59:57;16.90;99.90
33761;DHT22;20084;47.912;19.044;2023-06-26T04:02:23;16.90;99.90
33761;DHT22;20084;47.912;19.044;2023-06-26T04:04:49;16.90;99.90
33761;DHT22;20084;47.912;19.044;2023-06-26T04:07:15;17.10;99.90
33761;DHT22;20084;47.912;19.044;2023-06-26T04:09:40;17.10;99.90
33761;DHT22;20084;47.912;19.044;2023-06-26T04:12:06;17.20;99.90
33761;DHT22;20084;47.912;19.044;2023-06-26T04:14:32;17.30;99.90
33761;DHT22;20084;47.912;19.044;2023-06-26T04:16:57;17.30;99.90
33761;DHT22;20084;47.912;19.044;2023-06-26T04:19:23;17.40;99.90
33761;DHT22;20084;47.912;19.044;2023-06-26T04:21:49;17.50;99.90
33761;DHT22;20084;47.912;19.044;2023-06-26T04:24:14;17.60;99.90
33761;DHT22;20084;47.912;19.044;2023-06-26T04:26:40;17.70;99.90
33761;DHT22;20084;47.912;19.044;2023-06-26T04:29:10;17.80;99.90
33761;DHT22;20084;47.912;19.044;2023-06-26T04:31:36;17.90;99.90
33761;DHT22;20084;47.912;19.044;2023-06-26T04:34:02;17.90;99.90
33761;DHT22;20084;47.912;19.044;2023-06-26T04:36:27;18.10;99.90
33761;DHT22;20084;47.912;19.044;2023-06-26T04:38:57;18.20;99.90
33761;DHT22;20084;47.912;19.044;2023-06-26T04:41:24;18.30;99.90
33761;DHT22;20084;47.912;19.044;2023-06-26T04:43:50;18.40;99.90
33761;DHT22;20084;47.912;19.044;2023-06-26T04:46:16;18.50;99.90
33761;DHT22;20084;47.912;19.044;2023-06-26T04:48:41;18.60;99.90
33761;DHT22;20084;47.912;19.044;2023-06-26T04:51:10;18.70;99.90
33761;DHT22;20084;47.912;19.044;2023-06-26T04:53:36;18.90;99.90
33761;DHT22;20084;47.912;19.044;2023-06-26T04:56:01;18.90;99.90
33761;DHT22;20084;47.912;19.044;2023-06-26T04:58:27;19.00;99.90
33761;DHT22;20084;47.912;19.044;2023-06-26T05:00:53;19.10;99.90
33761;DHT22;20084;47.912;19.044;2023-06-26T05:03:19;19.30;99.90
33761;DHT22;20084;47.912;19.044;2023-06-26T05:05:44;19.30;99.90
33761;DHT22;20084;47.912;19.044;2023-06-26T05:08:23;19.40;99.90
33761;DHT22;20084;47.912;19.044;2023-06-26T05:10:49;19.50;99.90
33761;DHT22;20084;47.912;19.044;2023-06-26T05:13:15;19.60;99.90
33761;DHT22;20084;47.912;19.044;2023-06-26T05:15:44;19.70;99.90
33761;DHT22;20084;47.912;19.044;2023-06-26T05:18:10;19.80;99.90
33761;DHT22;20084;47.912;19.044;2023-06-26T05:20:36;19.90;99.90
33761;DHT22;20084;47.912;19.044;2023-06-26T05:23:02;20.00;99.90
33761;DHT22;20084;47.912;19.044;2023-06-26T05:25:32;20.10;99.90
33761;DHT22;20084;47.912;19.044;2023-06-26T05:27:59;20.20;99.90
33761;DHT22;20084;47.912;19.044;2023-06-26T05:30:25;20.20;99.90
33761;DHT22;20084;47.912;19.044;2023-06-26T05:32:52;20.30;99.90
33761;DHT22;20084;47.912;19.044;2023-06-26T05:35:20;20.30;99.90
33761;DHT22;20084;47.912;19.044;2023-06-26T05:37:48;20.40;99.90
33761;DHT22;20084;47.912;19.044;2023-06-26T05:40:15;20.40;99.90
33761;DHT22;20084;47.912;19.044;2023-06-26T05:42:40;20.50;99.90
33761;DHT22;20084;47.912;19.044;2023-06-26T05:45:06;20.60;99.90
33761;DHT22;20084;47.912;19.044;2023-06-26T05:47:32;20.70;99.90
33761;DHT22;20084;47.912;19.044;2023-06-26T05:49:59;20.80;99.90
33761;DHT22;20084;47.912;19.044;2023-06-26T05:52:24;20.90;99.90
33761;DHT22;20084;47.912;19.044;2023-06-26T05:54:50;21.00;99.90
33761;DHT22;20084;47.912;19.044;2023-06-26T05:57:16;21.00;99.90
33761;DHT22;20084;47.912;19.044;2023-06-26T05:59:43;21.20;99.90
33761;DHT22;20084;47.912;19.044;2023-06-26T06:02:09;21.20;99.90
33761;DHT22;20084;47.912;19.044;2023-06-26T06:04:34;21.30;99.90
33761;DHT22;20084;47.912;19.044;2023-06-26T06:07:02;21.40;99.90
33761;DHT22;20084;47.912;19.044;2023-06-26T06:09:28;21.50;99.90
33761;DHT22;20084;47.912;19.044;2023-06-26T06:11:53;21.50;99.90
33761;DHT22;20084;47.912;19.044;2023-06-26T06:14:19;21.60;99.90
33761;DHT22;20084;47.912;19.044;2023-06-26T06:16:45;21.70;99.90
33761;DHT22;20084;47.912;19.044;2023-06-26T06:19:10;21.70;99.90
33761;DHT22;20084;47.912;19.044;2023-06-26T06:21:38;21.90;99.90
33761;DHT22;20084;47.912;19.044;2023-06-26T06:24:04;21.90;99.90
33761;DHT22;20084;47.912;19.044;2023-06-26T06:26:29;22.00;99.90
33761;DHT22;20084;47.912;19.044;2023-06-26T06:28:55;22.10;99.90
33761;DHT22;20084;47.912;19.044;2023-06-26T06:31:21;22.20;99.90
33761;DHT22;20084;47.912;19.044;2023-06-26T06:33:46;22.20;99.90
33761;DHT22;20084;47.912;19.044;2023-06-26T06:36:12;22.30;99.90
33761;DHT22;20084;47.912;19.044;2023-06-26T06:38:37;22.30;99.90
33761;DHT22;20084;47.912;19.044;2023-06-26T06:41:03;22.30;99.90
33761;DHT22;20084;47.912;19.044;2023-06-26T06:43:28;22.40;99.90
33761;DHT22;20084;47.912;19.044;2023-06-26T06:45:54;22.50;99.90
33761;DHT22;20084;47.912;19.044;2023-06-26T06:48:20;22.70;99.90
33761;DHT22;20084;47.912;19.044;2023-06-26T06:50:45;22.80;99.90
33761;DHT22;20084;47.912;19.044;2023-06-26T06:53:11;22.90;99.90
33761;DHT22;20084;47.912;19.044;2023-06-26T06:55:37;23.00;99.90
33761;DHT22;20084;47.912;19.044;2023-06-26T06:58:02;23.10;99.90
33761;DHT22;20084;47.912;19.044;2023-06-26T07:00:28;23.10;99.90
33761;DHT22;20084;47.912;19.044;2023-06-26T07:02:54;23.10;99.90
33761;DHT22;20084;47.912;19.044;2023-06-26T07:05:22;23.10;99.90
33761;DHT22;20084;47.912;19.044;2023-06-26T07:07:47;23.20;99.90
33761;DHT22;20084;47.912;19.044;2023-06-26T07:10:14;23.30;99.90
33761;DHT22;20084;47.912;19.044;2023-06-26T07:12:39;23.50;99.90
33761;DHT22;20084;47.912;19.044;2023-06-26T07:15:06;23.40;99.90
33761;DHT22;20084;47.912;19.044;2023-06-26T07:17:32;23.40;99.90
33761;DHT22;20084;47.912;19.044;2023-06-26T07:19:59;23.30;99.90
33761;DHT22;20084;47.912;19.044;2023-06-26T07:22:25;23.40;99.90
33761;DHT22;20084;47.912;19.044;2023-06-26T07:24:51;23.50;99.90
33761;DHT22;20084;47.912;19.044;2023-06-26T07:27:17;23.50;99.90
33761;DHT22;20084;47.912;19.044;2023-06-26T07:29:45;23.40;99.90
33761;DHT22;20084;47.912;19.044;2023-06-26T07:32:11;23.40;99.90
33761;DHT22;20084;47.912;19.044;2023-06-26T07:34:37;23.50;99.90
33761;DHT22;20084;47.912;19.044;2023-06-26T07:37:03;23.50;99.90
33761;DHT22;20084;47.912;19.044;2023-06-26T07:39:28;23.40;99.90
33761;DHT22;20084;47.912;19.044;2023-06-26T07:41:54;23.40;99.90
33761;DHT22;20084;47.912;19.044;2023-06-26T07:44:20;23.30;99.90
33761;DHT22;20084;47.912;19.044;2023-06-26T07:46:45;23.30;99.90
33761;DHT22;20084;47.912;19.044;2023-06-26T07:49:11;23.30;99.90
33761;DHT22;20084;47.912;19.044;2023-06-26T07:51:37;23.30;99.90
33761;DHT22;20084;47.912;19.044;2023-06-26T07:54:03;23.30;99.90
33761;DHT22;20084;47.912;19.044;2023-06-26T07:56:29;23.30;99.90
33761;DHT22;20084;47.912;19.044;2023-06-26T07:58:55;23.40;99.90
33761;DHT22;20084;47.912;19.044;2023-06-26T08:01:23;23.40;99.90
33761;DHT22;20084;47.912;19.044;2023-06-26T08:03:49;23.40;99.90
33761;DHT22;20084;47.912;19.044;2023-06-26T08:06:14;23.50;99.90
33761;DHT22;20084;47.912;19.044;2023-06-26T08:08:40;23.60;99.90
33761;DHT22;20084;47.912;19.044;2023-06-26T08:11:06;23.80;99.90
33761;DHT22;20084;47.912;19.044;2023-06-26T08:13:31;23.90;99.90
33761;DHT22;20084;47.912;19.044;2023-06-26T08:15:57;24.00;99.90
33761;DHT22;20084;47.912;19.044;2023-06-26T08:18:23;24.00;99.90
33761;DHT22;20084;47.912;19.044;2023-06-26T08:20:48;24.00;99.90
33761;DHT22;20084;47.912;19.044;2023-06-26T08:23:14;24.00;99.90
33761;DHT22;20084;47.912;19.044;2023-06-26T08:25:40;24.20;99.90
33761;DHT22;20084;47.912;19.044;2023-06-26T08:28:05;24.30;99.90
33761;DHT22;20084;47.912;19.044;2023-06-26T08:30:32;24.30;99.90
33761;DHT22;20084;47.912;19.044;2023-06-26T08:32:58;24.20;99.90
33761;DHT22;20084;47.912;19.044;2023-06-26T08:35:23;24.20;99.90
33761;DHT22;20084;47.912;19.044;2023-06-26T08:37:49;24.20;99.90
33761;DHT22;20084;47.912;19.044;2023-06-26T08:40:17;24.20;99.90
33761;DHT22;20084;47.912;19.044;2023-06-26T08:42:46;24.30;99.90
33761;DHT22;20084;47.912;19.044;2023-06-26T08:45:12;24.30;99.90
33761;DHT22;20084;47.912;19.044;2023-06-26T08:47:38;24.30;99.90
33761;DHT22;20084;47.912;19.044;2023-06-26T08:50:08;24.50;99.90
33761;DHT22;20084;47.912;19.044;2023-06-26T08:52:39;24.50;99.90
33761;DHT22;20084;47.912;19.044;2023-06-26T08:55:09;24.50;99.90
33761;DHT22;20084;47.912;19.044;2023-06-26T08:57:36;24.50;99.90
33761;DHT22;20084;47.912;19.044;2023-06-26T09:00:03;24.60;99.90
33761;DHT22;20084;47.912;19.044;2023-06-26T09:02:29;24.70;99.90
33761;DHT22;20084;47.912;19.044;2023-06-26T09:04:54;24.70;99.90
33761;DHT22;20084;47.912;19.044;2023-06-26T09:07:20;24.70;99.90
33761;DHT22;20084;47.912;19.044;2023-06-26T09:09:46;24.80;99.90
33761;DHT22;20084;47.912;19.044;2023-06-26T09:12:11;24.80;99.90
33761;DHT22;20084;47.912;19.044;2023-06-26T09:14:38;24.90;99.90
33761;DHT22;20084;47.912;19.044;2023-06-26T09:17:04;25.00;99.90
33761;DHT22;20084;47.912;19.044;2023-06-26T09:19:30;25.10;99.90
33761;DHT22;20084;47.912;19.044;2023-06-26T09:21:56;25.10;99.90
33761;DHT22;20084;47.912;19.044;2023-06-26T09:24:22;25.20;99.90
33761;DHT22;20084;47.912;19.044;2023-06-26T09:26:49;25.20;99.90
33761;DHT22;20084;47.912;19.044;2023-06-26T09:29:15;25.10;99.90
33761;DHT22;20084;47.912;19.044;2023-06-26T09:31:44;24.90;99.90
33761;DHT22;20084;47.912;19.044;2023-06-26T09:34:09;24.90;99.90
33761;DHT22;20084;47.912;19.044;2023-06-26T09:36:35;25.10;99.90
33761;DHT22;20084;47.912;19.044;2023-06-26T09:39:03;25.20;99.90
33761;DHT22;20084;47.912;19.044;2023-06-26T09:41:30;25.40;99.90
33761;DHT22;20084;47.912;19.044;2023-06-26T09:44:01;25.50;99.90
33761;DHT22;20084;47.912;19.044;2023-06-26T09:46:28;25.50;99.90
33761;DHT22;20084;47.912;19.044;2023-06-26T09:49:06;25.50;99.90
33761;DHT22;20084;47.912;19.044;2023-06-26T09:51:35;25.40;99.90
33761;DHT22;20084;47.912;19.044;2023-06-26T09:54:02;25.30;99.90
33761;DHT22;20084;47.912;19.044;2023-06-26T09:56:29;25.30;99.90
33761;DHT22;20084;47.912;19.044;2023-06-26T09:59:02;25.30;99.90
33761;DHT22;20084;47.912;19.044;2023-06-26T10:01:31;25.20;99.90
33761;DHT22;20084;47.912;19.044;2023-06-26T10:03:57;25.20;99.90
33761;DHT22;20084;47.912;19.044;2023-06-26T10:06:35;25.10;99.90
33761;DHT22;20084;47.912;19.044;2023-06-26T10:09:03;24.90;99.90
33761;DHT22;20084;47.912;19.044;2023-06-26T10:11:47;24.90;99.90
33761;DHT22;20084;47.912;19.044;2023-06-26T10:14:15;24.80;99.90
33761;DHT22;20084;47.912;19.044;2023-06-26T10:16:43;24.80;99.90
33761;DHT22;20084;47.912;19.044;2023-06-26T10:19:10;24.80;99.90
33761;DHT22;20084;47.912;19.044;2023-06-26T10:21:38;24.80;99.90
33761;DHT22;20084;47.912;19.044;2023-06-26T10:24:06;24.80;99.90
33761;DHT22;20084;47.912;19.044;2023-06-26T10:26:35;24.80;99.90
33761;DHT22;20084;47.912;19.044;2023-06-26T10:29:04;24.90;99.90
33761;DHT22;20084;47.912;19.044;2023-06-26T10:31:31;25.00;99.90
33761;DHT22;20084;47.912;19.044;2023-06-26T10:33:57;25.10;99.90
33761;DHT22;20084;47.912;19.044;2023-06-26T10:36:30;25.10;99.90
33761;DHT22;20084;47.912;19.044;2023-06-26T10:38:59;25.20;99.90
33761;DHT22;20084;47.912;19.044;2023-06-26T10:41:27;25.30;99.90
33761;DHT22;20084;47.912;19.044;2023-06-26T10:46:28;25.30;99.90
33761;DHT22;20084;47.912;19.044;2023-06-26T10:48:59;25.40;99.90
33761;DHT22;20084;47.912;19.044;2023-06-26T10:51:26;25.50;99.90
33761;DHT22;20084;47.912;19.044;2023-06-26T10:53:58;25.60;99.90
33761;DHT22;20084;47.912;19.044;2023-06-26T10:56:40;25.70;99.90
33761;DHT22;20084;47.912;19.044;2023-06-26T10:59:24;25.60;99.90
33761;DHT22;20084;47.912;19.044;2023-06-26T11:02:05;25.50;99.90
33761;DHT22;20084;47.912;19.044;2023-06-26T11:07:34;25.80;99.90
33761;DHT22;20084;47.912;19.044;2023-06-26T11:10:02;25.90;99.90
33761;DHT22;20084;47.912;19.044;2023-06-26T11:12:44;26.10;99.90
33761;DHT22;20084;47.912;19.044;2023-06-26T11:15:14;26.20;99.90
33761;DHT22;20084;47.912;19.044;2023-06-26T11:17:41;26.10;99.90
33761;DHT22;20084;47.912;19.044;2023-06-26T11:20:12;26.10;99.90
33761;DHT22;20084;47.912;19.044;2023-06-26T11:22:40;26.00;99.90
33761;DHT22;20084;47.912;19.044;2023-06-26T11:25:07;26.10;99.90
33761;DHT22;20084;47.912;19.044;2023-06-26T11:27:43;26.00;99.90
33761;DHT22;20084;47.912;19.044;2023-06-26T11:30:10;25.90;99.90
33761;DHT22;20084;47.912;19.044;2023-06-26T11:32:37;25.90;99.90
33761;DHT22;20084;47.912;19.044;2023-06-26T11:35:03;26.00;99.90
33761;DHT22;20084;47.912;19.044;2023-06-26T11:37:31;26.10;99.90
33761;DHT22;20084;47.912;19.044;2023-06-26T11:39:57;26.20;99.90
33761;DHT22;20084;47.912;19.044;2023-06-26T11:42:23;26.30;99.90
33761;DHT22;20084;47.912;19.044;2023-06-26T11:44:50;26.40;99.90
33761;DHT22;20084;47.912;19.044;2023-06-26T11:47:20;26.40;99.90
33761;DHT22;20084;47.912;19.044;2023-06-26T11:49:48;26.30;99.90
33761;DHT22;20084;47.912;19.044;2023-06-26T11:52:15;26.40;99.90
33761;DHT22;20084;47.912;19.044;2023-06-26T11:54:44;26.60;99.90
33761;DHT22;20084;47.912;19.044;2023-06-26T11:57:14;26.60;99.90
33761;DHT22;20084;47.912;19.044;2023-06-26T11:59:41;26.60;99.90
33761;DHT22;20084;47.912;19.044;2023-06-26T12:02:10;26.60;99.90
33761;DHT22;20084;47.912;19.044;2023-06-26T12:04:40;26.60;99.90
33761;DHT22;20084;47.912;19.044;2023-06-26T12:07:07;26.80;99.90
33761;DHT22;20084;47.912;19.044;2023-06-26T12:09:42;26.80;99.90
33761;DHT22;20084;47.912;19.044;2023-06-26T12:12:10;26.80;99.90
33761;DHT22;20084;47.912;19.044;2023-06-26T12:14:36;26.90;99.90
33761;DHT22;20084;47.912;19.044;2023-06-26T12:17:08;26.80;99.90
33761;DHT22;20084;47.912;19.044;2023-06-26T12:19:37;26.70;99.90
33761;DHT22;20084;47.912;19.044;2023-06-26T12:22:06;26.60;99.90
33761;DHT22;20084;47.912;19.044;2023-06-26T12:24:33;26.80;99.90
33761;DHT22;20084;47.912;19.044;2023-06-26T12:26:58;26.90;99.90
33761;DHT22;20084;47.912;19.044;2023-06-26T12:29:33;27.00;99.90
33761;DHT22;20084;47.912;19.044;2023-06-26T12:32:00;27.00;99.90
33761;DHT22;20084;47.912;19.044;2023-06-26T12:34:38;27.10;99.90
33761;DHT22;20084;47.912;19.044;2023-06-26T12:37:09;27.10;99.90
33761;DHT22;20084;47.912;19.044;2023-06-26T12:39:55;27.10;99.90
33761;DHT22;20084;47.912;19.044;2023-06-26T12:42:28;27.20;99.90
33761;DHT22;20084;47.912;19.044;2023-06-26T12:44:54;27.20;99.90
33761;DHT22;20084;47.912;19.044;2023-06-26T12:47:28;27.20;99.90
33761;DHT22;20084;47.912;19.044;2023-06-26T12:49:56;27.20;99.90
33761;DHT22;20084;47.912;19.044;2023-06-26T12:52:23;27.30;99.90
33761;DHT22;20084;47.912;19.044;2023-06-26T12:54:53;27.30;99.90
33761;DHT22;20084;47.912;19.044;2023-06-26T12:57:19;27.30;99.90
33761;DHT22;20084;47.912;19.044;2023-06-26T12:59:45;27.40;99.90
33761;DHT22;20084;47.912;19.044;2023-06-26T13:02:11;27.50;99.90
33761;DHT22;20084;47.912;19.044;2023-06-26T13:04:37;27.50;99.90
33761;DHT22;20084;47.912;19.044;2023-06-26T13:07:06;27.50;99.90
33761;DHT22;20084;47.912;19.044;2023-06-26T13:09:35;27.50;99.90
33761;DHT22;20084;47.912;19.044;2023-06-26T13:12:02;27.50;98.70
33761;DHT22;20084;47.912;19.044;2023-06-26T13:14:29;27.50;99.40
33761;DHT22;20084;47.912;19.044;2023-06-26T13:16:55;27.40;98.00
33761;DHT22;20084;47.912;19.044;2023-06-26T13:19:21;27.20;98.50
33761;DHT22;20084;47.912;19.044;2023-06-26T13:21:47;27.30;99.40
33761;DHT22;20084;47.912;19.044;2023-06-26T13:24:12;27.20;98.70
33761;DHT22;20084;47.912;19.044;2023-06-26T13:26:38;27.20;99.90
33761;DHT22;20084;47.912;19.044;2023-06-26T13:29:05;27.40;99.60
33761;DHT22;20084;47.912;19.044;2023-06-26T13:31:31;27.50;99.90
33761;DHT22;20084;47.912;19.044;2023-06-26T13:33:58;27.70;99.40
33761;DHT22;20084;47.912;19.044;2023-06-26T13:36:23;27.70;99.30
33761;DHT22;20084;47.912;19.044;2023-06-26T13:38:50;27.80;98.20
33761;DHT22;20084;47.912;19.044;2023-06-26T13:41:22;27.80;99.00
33761;DHT22;20084;47.912;19.044;2023-06-26T13:43:48;27.80;99.60
33761;DHT22;20084;47.912;19.044;2023-06-26T13:46:15;27.80;99.90
33761;DHT22;20084;47.912;19.044;2023-06-26T13:48:40;27.80;98.90
33761;DHT22;20084;47.912;19.044;2023-06-26T13:51:06;27.80;98.40
33761;DHT22;20084;47.912;19.044;2023-06-26T13:53:32;27.90;98.30
33761;DHT22;20084;47.912;19.044;2023-06-26T13:55:57;27.90;98.20
33761;DHT22;20084;47.912;19.044;2023-06-26T13:58:23;27.90;97.00
33761;DHT22;20084;47.912;19.044;2023-06-26T14:00:52;27.80;96.70
33761;DHT22;20084;47.912;19.044;2023-06-26T14:03:18;27.80;97.20
33761;DHT22;20084;47.912;19.044;2023-06-26T14:05:44;27.80;96.70
33761;DHT22;20084;47.912;19.044;2023-06-26T14:08:09;27.90;96.70
33761;DHT22;20084;47.912;19.044;2023-06-26T14:10:36;27.90;95.80
33761;DHT22;20084;47.912;19.044;2023-06-26T14:13:03;27.90;97.00
33761;DHT22;20084;47.912;19.044;2023-06-26T14:15:29;27.90;97.20
33761;DHT22;20084;47.912;19.044;2023-06-26T14:17:55;27.90;95.70
33761;DHT22;20084;47.912;19.044;2023-06-26T14:20:21;27.90;95.30
33761;DHT22;20084;47.912;19.044;2023-06-26T14:22:48;28.00;94.90
33761;DHT22;20084;47.912;19.044;2023-06-26T14:25:14;28.00;95.10
33761;DHT22;20084;47.912;19.044;2023-06-26T14:27:40;28.00;94.70
33761;DHT22;20084;47.912;19.044;2023-06-26T14:30:06;28.00;96.00
33761;DHT22;20084;47.912;19.044;2023-06-26T14:32:33;27.90;96.80
33761;DHT22;20084;47.912;19.044;2023-06-26T14:34:59;27.80;95.10
33761;DHT22;20084;47.912;19.044;2023-06-26T14:37:26;27.80;94.00
33761;DHT22;20084;47.912;19.044;2023-06-26T14:39:52;27.70;95.30
33761;DHT22;20084;47.912;19.044;2023-06-26T14:42:18;27.70;95.60
33761;DHT22;20084;47.912;19.044;2023-06-26T14:44:44;27.80;96.50
33761;DHT22;20084;47.912;19.044;2023-06-26T14:47:12;27.90;95.80
33761;DHT22;20084;47.912;19.044;2023-06-26T14:49:39;27.90;94.90
33761;DHT22;20084;47.912;19.044;2023-06-26T14:52:05;27.80;96.30
33761;DHT22;20084;47.912;19.044;2023-06-26T14:54:30;27.80;95.70
33761;DHT22;20084;47.912;19.044;2023-06-26T14:56:57;27.90;95.60
33761;DHT22;20084;47.912;19.044;2023-06-26T14:59:23;27.80;95.60
33761;DHT22;20084;47.912;19.044;2023-06-26T15:01:49;27.90;96.20
33761;DHT22;20084;47.912;19.044;2023-06-26T15:04:14;27.90;96.10
33761;DHT22;20084;47.912;19.044;2023-06-26T15:06:40;27.80;96.10
33761;DHT22;20084;47.912;19.044;2023-06-26T15:09:06;27.80;96.40
33761;DHT22;20084;47.912;19.044;2023-06-26T15:11:32;27.70;95.00
33761;DHT22;20084;47.912;19.044;2023-06-26T15:13:57;27.70;95.80
33761;DHT22;20084;47.912;19.044;2023-06-26T15:16:23;27.70;95.00
33761;DHT22;20084;47.912;19.044;2023-06-26T15:18:49;27.70;95.60
33761;DHT22;20084;47.912;19.044;2023-06-26T15:21:14;27.60;94.00
33761;DHT22;20084;47.912;19.044;2023-06-26T15:23:40;27.50;94.70